Time;durP1;ratioP1;P1;durP2;ratioP2;P2;SDS_P1;SDS_P2;PMS_P1;PMS_P2;Temp;Humidity;BMP_temperature;BMP_pressure;BME280_temperature;BME280_humidity;BME280_pressure;Samples;Min_cycle;Max_cycle;Signal;HPM_P1;HPM_P2
2023/05/20 00:01:17;;;;;;;7.45;3.63;;;;;;;10.82;76.80;102371.31;4935457;29;20031;-80
2023/05/20 00:03:43;;;;;;;8.40;3.70;;;;;;;10.75;76.83;102357.78;4935383;29;20020;-80
2023/05/20 00:06:08;;;;;;;9.02;3.83;;;;;;;10.95;77.30;102397.53;4935317;29;20039;-79
2023/05/20 00:08:33;;;;;;;6.78;3.85;;;;;;;10.89;77.42;102399.44;4935472;29;20040;-84
2023/05/20 00:10:59;;;;;;;9.48;3.90;;;;;;;10.86;77.95;102394.41;4935535;29;20055;-85
2023/05/20 00:13:24;;;;;;;10.23;4.25;;;;;;;10.82;78.76;102400.59;4935249;29;20408;-88
2023/05/20 00:15:51;;;;;;;7.18;3.80;;;;;;;10.65;78.29;102374.56;4917958;29;20091;-82
2023/05/20 00:18:17;;;;;;;13.75;4.50;;;;;;;10.75;78.85;102393.97;4935031;29;20039;-86
2023/05/20 00:20:44;;;;;;;7.72;4.28;;;;;;;10.70;79.35;102400.19;4935185;29;20020;-84
2023/05/20 00:23:10;;;;;;;11.68;4.28;;;;;;;10.64;79.50;102393.53;4935216;29;20024;-86
2023/05/20 00:25:35;;;;;;;11.85;4.50;;;;;;;10.53;79.85;102383.63;4935461;29;20083;-84
2023/05/20 00:28:00;;;;;;;7.63;4.43;;;;;;;10.42;80.32;102375.44;4935363;29;20031;-86
2023/05/20 00:30:26;;;;;;;10.13;4.28;;;;;;;10.52;81.28;102406.91;4935695;29;20024;-88
2023/05/20 00:32:51;;;;;;;11.00;4.75;;;;;;;10.44;81.47;102399.47;4935233;29;20472;-88
2023/05/20 00:35:16;;;;;;;11.95;4.55;;;;;;;10.33;81.34;102379.22;4935080;29;20032;-87
2023/05/20 00:37:42;;;;;;;9.38;4.70;;;;;;;10.16;82.10;102360.03;4935281;29;20078;-83
2023/05/20 00:40:08;;;;;;;9.23;5.07;;;;;;;10.31;82.83;102391.31;4935058;29;20039;-89
2023/05/20 00:42:33;;;;;;;10.32;4.97;;;;;;;10.27;83.40;102389.75;4934926;29;20063;-86
2023/05/20 00:44:59;;;;;;;9.70;4.43;;;;;;;10.22;82.85;102380.47;4935042;29;20028;-86
2023/05/20 00:47:31;;;;;;;10.82;5.25;;;;;;;9.99;83.46;102352.91;4934882;29;20028;-88
2023/05/20 00:49:57;;;;;;;10.68;4.50;;;;;;;10.15;84.15;102386.75;4936689;29;20087;-83
2023/05/20 00:52:23;;;;;;;8.82;5.10;;;;;;;9.85;84.74;102340.50;4938685;29;20027;-86
2023/05/20 00:54:50;;;;;;;9.32;5.03;;;;;;;10.07;84.87;102385.28;4921661;29;20391;-85
2023/05/20 00:57:16;;;;;;;11.05;5.47;;;;;;;10.02;84.88;102376.00;4938434;29;20020;-88
2023/05/20 00:59:41;;;;;;;10.35;5.47;;;;;;;9.90;85.02;102355.81;4938510;29;20038;-84
2023/05/20 01:02:07;;;;;;;10.68;5.10;;;;;;;10.02;85.45;102379.44;4938388;29;20468;-87
2023/05/20 01:04:32;;;;;;;10.90;4.65;;;;;;;9.80;85.91;102350.13;4938017;29;20066;-88
2023/05/20 01:07:01;;;;;;;11.32;5.47;;;;;;;10.00;85.56;102377.81;4938093;29;20038;-88
2023/05/20 01:09:26;;;;;;;14.55;5.45;;;;;;;9.70;86.38;102335.88;4970066;28;20491;-85
2023/05/20 01:12:22;;;;;;;11.32;5.47;;;;;;;9.87;86.58;102372.25;4976836;28;20077;-83
2023/05/20 01:14:49;;;;;;;14.30;5.70;;;;;;;9.89;87.10;102378.19;4976819;28;20026;-83
2023/05/20 01:17:16;;;;;;;8.75;5.70;;;;;;;9.55;87.33;102323.53;4976601;28;20022;-84
2023/05/20 01:19:43;;;;;;;15.68;6.07;;;;;;;9.84;87.26;102379.25;4976306;28;20023;-84
2023/05/20 01:22:11;;;;;;;11.55;5.57;;;;;;;9.49;87.87;102335.72;4976459;28;20544;-87
2023/05/20 01:24:40;;;;;;;10.93;5.40;;;;;;;9.61;87.80;102349.94;4976470;28;20035;-87
2023/05/20 01:27:09;;;;;;;8.80;5.00;;;;;;;9.58;88.44;102350.03;4958970;28;20027;-84
2023/05/20 01:29:35;;;;;;;11.07;5.50;;;;;;;9.75;88.54;102373.53;4958631;28;20073;-84
2023/05/20 01:32:05;;;;;;;9.70;5.95;;;;;;;9.59;88.52;102351.72;4976226;28;20483;-86
2023/05/20 01:34:31;;;;;;;11.45;6.05;;;;;;;9.49;88.97;102330.56;4976266;28;20027;-86
2023/05/20 01:36:57;;;;;;;11.35;5.70;;;;;;;9.49;88.94;102333.13;4976374;28;20383;-87
2023/05/20 01:39:25;;;;;;;12.13;5.82;;;;;;;9.61;89.52;102360.25;4976143;28;20034;-88
2023/05/20 01:41:50;;;;;;;9.73;5.22;;;;;;;9.40;89.06;102323.16;4975985;28;20047;-87
2023/05/20 01:44:16;;;;;;;11.10;5.32;;;;;;;9.61;89.49;102364.56;4976074;28;20106;-87
2023/05/20 01:46:41;;;;;;;11.73;5.70;;;;;;;9.60;89.54;102368.03;4975956;28;20022;-85
2023/05/20 01:49:06;;;;;;;11.95;5.45;;;;;;;9.41;89.49;102334.28;4958542;28;20031;-86
2023/05/20 01:51:34;;;;;;;9.32;5.55;;;;;;;9.37;90.26;102341.31;4976177;28;20030;-78
2023/05/20 01:53:59;;;;;;;12.43;6.05;;;;;;;9.14;90.78;102303.41;4976172;28;20023;-81
2023/05/20 01:56:25;;;;;;;9.30;5.50;;;;;;;9.36;90.69;102346.53;4975955;28;20443;-83
2023/05/20 01:58:50;;;;;;;10.23;6.15;;;;;;;9.24;91.03;102318.53;4976273;28;20034;-77
2023/05/20 02:01:15;;;;;;;12.23;5.95;;;;;;;9.19;91.37;102326.44;4975742;28;20041;-79
2023/05/20 02:03:41;;;;;;;15.20;6.03;;;;;;;9.34;91.51;102356.00;4975720;28;20031;-77
2023/05/20 02:06:06;;;;;;;10.10;6.15;;;;;;;9.19;91.68;102329.03;4975565;28;20466;-78
2023/05/20 02:08:31;;;;;;;13.07;5.72;;;;;;;8.95;92.18;102302.34;4975553;28;20031;-77
2023/05/20 02:10:57;;;;;;;10.55;5.43;;;;;;;9.07;91.92;102314.81;4975457;28;20022;-77
2023/05/20 02:13:22;;;;;;;12.50;6.43;;;;;;;9.09;92.78;102333.63;4975551;28;20082;-78
2023/05/20 02:15:47;;;;;;;10.55;6.10;;;;;;;9.20;92.69;102356.47;4975366;28;20027;-77
2023/05/20 02:18:13;;;;;;;10.35;5.60;;;;;;;9.14;93.11;102356.66;4975583;28;20475;-78
2023/05/20 02:20:38;;;;;;;10.50;5.88;;;;;;;8.88;93.21;102318.88;4975187;28;20035;-78
2023/05/20 02:23:04;;;;;;;8.75;5.82;;;;;;;9.06;93.70;102356.94;4975305;28;20431;-78
2023/05/20 02:25:33;;;;;;;9.52;5.50;;;;;;;9.07;93.97;102343.16;4975515;28;20054;-78
2023/05/20 02:27:58;;;;;;;12.32;6.53;;;;;;;9.05;94.30;102349.25;4975437;28;20114;-78
2023/05/20 02:30:23;;;;;;;12.15;6.45;;;;;;;9.04;94.41;102345.81;4975066;28;20110;-79
2023/05/20 02:32:49;;;;;;;12.43;6.63;;;;;;;8.80;95.03;102297.66;4975279;28;20030;-79
2023/05/20 02:35:15;;;;;;;11.35;6.10;;;;;;;9.05;94.78;102338.97;4975247;28;20026;-79
2023/05/20 02:37:40;;;;;;;11.27;6.40;;;;;;;8.91;95.29;102323.91;4975118;28;20061;-81
2023/05/20 02:40:08;;;;;;;13.57;6.75;;;;;;;8.98;95.56;102342.63;4975185;28;20062;-78
2023/05/20 02:42:33;;;;;;;11.05;6.45;;;;;;;8.96;95.68;102340.09;4974986;28;20050;-82
2023/05/20 02:44:58;;;;;;;12.25;6.15;;;;;;;8.96;95.62;102344.41;4974996;28;20027;-78
2023/05/20 02:47:24;;;;;;;9.65;5.93;;;;;;;8.95;96.02;102341.00;4974783;28;20077;-79
2023/05/20 02:49:50;;;;;;;11.32;6.40;;;;;;;8.82;95.86;102316.50;4974730;28;20075;-78
2023/05/20 02:52:15;;;;;;;11.68;6.35;;;;;;;8.92;96.28;102343.63;4975187;28;20018;-79
2023/05/20 02:54:40;;;;;;;12.07;6.32;;;;;;;8.93;96.61;102332.44;4974988;28;20070;-79
2023/05/20 02:57:06;;;;;;;11.02;6.38;;;;;;;8.98;96.47;102347.78;4974643;28;20077;-79
2023/05/20 02:59:31;;;;;;;9.82;6.28;;;;;;;8.84;96.42;102319.84;4974805;28;20037;-77
2023/05/20 03:01:56;;;;;;;13.35;6.90;;;;;;;8.80;96.68;102315.69;4975041;28;20161;-77
2023/05/20 03:04:24;;;;;;;13.60;6.47;;;;;;;8.60;96.92;102295.72;4941103;29;20030;-77
2023/05/20 03:06:50;;;;;;;13.23;6.05;;;;;;;8.88;97.43;102342.91;4937853;29;20035;-78
2023/05/20 03:09:18;;;;;;;12.43;6.63;;;;;;;8.65;97.48;102308.44;4955238;29;20078;-79
2023/05/20 03:11:43;;;;;;;12.60;6.82;;;;;;;8.48;97.70;102278.94;4954703;28;20117;-79
2023/05/20 03:14:09;;;;;;;13.15;7.25;;;;;;;8.85;97.79;102332.72;4937595;29;20134;-77
2023/05/20 03:16:34;;;;;;;11.95;6.85;;;;;;;7.85;98.03;102169.31;4955309;29;20090;-79
2023/05/20 03:19:00;;;;;;;13.35;6.28;;;;;;;8.47;98.13;102272.09;4955017;29;20467;-88
2023/05/20 03:21:25;;;;;;;16.38;7.47;;;;;;;8.83;98.52;102331.88;4954718;29;20059;-78
2023/05/20 03:23:51;;;;;;;12.52;6.88;;;;;;;8.53;98.34;102283.91;4954943;29;20026;-77
2023/05/20 03:26:16;;;;;;;9.70;6.38;;;;;;;8.80;98.81;102336.31;4954790;29;20031;-80
2023/05/20 03:28:41;;;;;;;11.95;6.90;;;;;;;8.56;98.63;102295.00;4955109;29;20027;-79
2023/05/20 03:31:07;;;;;;;11.38;6.97;;;;;;;8.77;99.68;102339.00;4937316;29;20043;-78
2023/05/20 03:33:34;;;;;;;11.95;6.50;;;;;;;8.81;99.62;102341.41;4955001;29;20034;-78
2023/05/20 03:35:59;;;;;;;14.93;6.50;;;;;;;8.55;99.38;102305.31;4954694;29;20031;-78
2023/05/20 03:38:25;;;;;;;10.38;6.00;;;;;;;8.57;99.37;102308.69;4954872;29;20522;-77
2023/05/20 03:40:51;;;;;;;12.65;6.55;;;;;;;8.78;100.00;102346.66;4954799;28;20039;-88
2023/05/20 03:43:16;;;;;;;10.38;6.80;;;;;;;8.80;100.00;102342.28;4954983;29;20396;-89
2023/05/20 03:45:41;;;;;;;11.55;6.55;;;;;;;8.62;99.94;102299.09;4955013;29;20467;-86
2023/05/20 03:48:07;;;;;;;12.27;6.63;;;;;;;8.77;100.00;102336.41;4954551;29;20114;-89
2023/05/20 03:50:33;;;;;;;12.98;6.18;;;;;;;8.74;99.83;102339.91;4954632;29;20027;-89
2023/05/20 03:52:58;;;;;;;15.27;7.43;;;;;;;8.71;100.00;102321.13;4954502;29;20031;-89
2023/05/20 03:55:24;;;;;;;10.88;6.93;;;;;;;8.81;100.00;102332.84;4954888;29;20072;-89
2023/05/20 03:57:50;;;;;;;15.30;6.90;;;;;;;8.65;100.00;102304.13;4954862;29;20061;-90
2023/05/20 04:00:21;;;;;;;11.80;7.13;;;;;;;8.90;100.00;102340.28;4954895;29;20386;-90
2023/05/20 04:02:47;;;;;;;14.10;6.63;;;;;;;8.96;100.00;102340.09;4954698;29;20110;-89
2023/05/20 04:05:12;;;;;;;9.63;6.35;;;;;;;9.06;99.77;102332.91;4954546;29;20111;-86
2023/05/20 04:07:38;;;;;;;11.00;6.57;;;;;;;9.09;99.85;102332.81;4954222;29;20051;-90
2023/05/20 04:10:04;;;;;;;10.95;6.47;;;;;;;8.93;99.34;102292.94;4954771;29;20558;-88
2023/05/20 04:12:31;;;;;;;10.27;6.03;;;;;;;9.11;99.23;102318.97;4954613;29;20067;-88
2023/05/20 04:15:00;;;;;;;11.18;7.07;;;;;;;9.09;99.03;102310.44;4954610;29;20019;-89
2023/05/20 04:17:29;;;;;;;14.23;7.20;;;;;;;9.14;98.75;102300.84;4954595;29;20031;-87
2023/05/20 04:19:56;;;;;;;9.93;7.07;;;;;;;9.39;98.31;102336.09;4954413;29;20031;-90
2023/05/20 04:22:22;;;;;;;11.10;6.53;;;;;;;9.46;98.36;102330.69;4953879;29;20118;-88
2023/05/20 04:24:47;;;;;;;11.10;6.55;;;;;;;9.53;97.79;102330.44;4956341;28;20059;-79
2023/05/20 04:27:12;;;;;;;14.00;6.32;;;;;;;9.53;97.47;102326.13;4959838;29;20036;-87
2023/05/20 04:29:40;;;;;;;11.60;6.78;;;;;;;9.42;96.89;102287.81;4958921;29;20070;-87
2023/05/20 04:32:06;;;;;;;12.38;7.25;;;;;;;9.40;96.64;102281.06;4958876;29;20472;-87
2023/05/20 04:34:33;;;;;;;12.57;7.28;;;;;;;9.54;96.43;102293.44;4957999;29;20052;-82
2023/05/20 04:37:00;;;;;;;10.95;6.85;;;;;;;9.87;96.26;102337.88;4957847;29;20038;-84
2023/05/20 04:39:25;;;;;;;10.13;6.63;;;;;;;9.94;96.08;102332.44;4957721;29;20026;-83
2023/05/20 04:41:53;;;;;;;11.70;6.30;;;;;;;9.88;95.63;102308.56;4957787;29;20043;-84
2023/05/20 04:44:19;;;;;;;13.20;6.70;;;;;;;9.93;94.87;102299.78;4957930;29;20126;-82
2023/05/20 04:46:44;;;;;;;11.95;6.50;;;;;;;10.11;95.10;102316.31;4958091;29;20487;-80
2023/05/20 04:49:10;;;;;;;12.57;6.75;;;;;;;9.94;94.58;102283.41;4957776;29;20043;-87
2023/05/20 04:51:36;;;;;;;13.00;6.60;;;;;;;10.37;94.18;102348.09;4957945;29;20030;-84
2023/05/20 04:54:02;;;;;;;11.60;6.88;;;;;;;10.29;93.45;102325.13;4958194;29;20078;-85
2023/05/20 04:56:27;;;;;;;10.75;6.65;;;;;;;10.17;93.30;102304.91;4957965;29;20035;-83
2023/05/20 04:58:53;;;;;;;13.60;7.18;;;;;;;10.37;93.39;102324.84;4957745;29;20033;-82
2023/05/20 05:01:18;;;;;;;11.15;6.60;;;;;;;10.62;93.19;102341.09;4957739;29;20026;-83
2023/05/20 05:03:44;;;;;;;11.50;6.80;;;;;;;10.95;92.75;102307.91;4940255;29;20463;-80
2023/05/20 05:06:09;;;;;;;10.48;5.85;;;;;;;12.42;86.81;102337.72;4957414;29;20146;-82
2023/05/20 05:08:36;;;;;;;10.30;5.90;;;;;;;13.44;80.45;102276.50;4957249;29;20051;-84
2023/05/20 05:11:04;;;;;;;10.82;5.13;;;;;;;14.88;73.30;102310.22;4957627;29;20364;-86
2023/05/20 05:13:30;;;;;;;11.20;5.10;;;;;;;15.68;68.36;102306.38;4940251;29;20031;-83
2023/05/20 05:16:04;;;;;;;9.93;4.50;;;;;;;16.38;66.80;102294.16;4957288;29;20090;-86
2023/05/20 05:18:29;;;;;;;7.40;4.80;;;;;;;17.12;62.24;102321.53;4957070;29;20031;-85
2023/05/20 05:21:03;;;;;;;10.90;4.43;;;;;;;17.43;61.34;102315.91;4939816;29;20019;-84
2023/05/20 05:23:28;;;;;;;10.10;5.47;;;;;;;17.55;59.76;102282.03;4957315;29;20051;-85
2023/05/20 05:25:54;;;;;;;8.75;4.63;;;;;;;17.77;56.90;102264.78;4957366;29;20522;-86
2023/05/20 05:28:19;;;;;;;8.98;4.15;;;;;;;18.44;56.20;102315.81;4956932;29;20379;-87
2023/05/20 05:30:45;;;;;;;7.85;3.75;;;;;;;18.03;54.52;102181.91;4956967;29;20031;-86
2023/05/20 05:33:14;;;;;;;9.30;4.55;;;;;;;18.14;53.94;102195.97;4940965;29;20024;-81
2023/05/20 05:35:41;;;;;;;8.18;4.20;;;;;;;18.80;52.63;102280.91;4956244;28;20031;-77
2023/05/20 05:38:06;;;;;;;8.05;3.83;;;;;;;19.48;52.32;102321.97;4956620;29;20019;-77
2023/05/20 05:40:32;;;;;;;7.95;4.30;;;;;;;19.88;50.95;102308.41;4956594;29;20054;-80
2023/05/20 05:42:57;;;;;;;7.95;4.50;;;;;;;20.34;49.79;102308.19;4956535;29;20137;-77
2023/05/20 05:45:22;;;;;;;10.50;4.03;;;;;;;20.58;48.70;102314.09;5026435;23;20057;-79
2023/05/20 05:47:48;;;;;;;9.02;4.15;;;;;;;20.76;47.21;102271.56;4976040;28;20030;-80
2023/05/20 05:50:13;;;;;;;10.00;3.90;;;;;;;20.95;47.04;102321.56;4976114;28;20445;-79
2023/05/20 05:52:38;;;;;;;9.20;4.68;;;;;;;20.51;46.90;102236.81;4975670;28;20166;-79
2023/05/20 05:55:04;;;;;;;6.50;4.05;;;;;;;21.23;45.55;102312.19;4976221;28;20031;-77
2023/05/20 05:57:30;;;;;;;8.25;3.85;;;;;;;21.25;46.00;102312.09;4975832;28;20570;-77
2023/05/20 05:59:55;;;;;;;7.95;3.80;;;;;;;20.71;45.38;102153.78;5063561;23;20066;-77
2023/05/20 06:02:21;;;;;;;6.82;4.10;;;;;;;22.21;43.89;102316.88;4983004;23;20186;-79
2023/05/20 06:04:46;;;;;;;6.40;3.58;;;;;;;22.47;42.99;102309.28;4958736;28;20042;-78
2023/05/20 06:07:12;;;;;;;10.60;3.72;;;;;;;22.73;42.12;102301.69;4957951;28;20044;-78
2023/05/20 06:09:38;;;;;;;8.15;3.67;;;;;;;23.17;41.06;102319.50;4975621;28;20078;-79
2023/05/20 06:12:03;;;;;;;7.63;3.75;;;;;;;23.77;40.25;102313.88;4975802;28;20029;-78
2023/05/20 06:14:29;;;;;;;7.40;3.50;;;;;;;23.65;39.16;102289.53;4975412;28;20027;-79
2023/05/20 06:16:54;;;;;;;6.07;3.50;;;;;;;23.73;39.47;102313.34;4958185;28;20383;-78
2023/05/20 06:19:20;;;;;;;8.63;3.92;;;;;;;23.64;38.86;102310.78;4975364;28;20031;-77
2023/05/20 06:21:45;;;;;;;6.32;3.40;;;;;;;23.29;39.43;102314.88;4975444;28;20023;-81
2023/05/20 06:24:10;;;;;;;7.30;3.88;;;;;;;23.51;40.07;102283.88;4957560;28;20368;-77
2023/05/20 06:26:36;;;;;;;6.05;3.20;;;;;;;23.75;38.61;102307.94;4975187;28;20042;-78
2023/05/20 06:29:02;;;;;;;9.15;4.03;;;;;;;23.59;38.74;102270.81;4974982;28;20110;-79
2023/05/20 06:31:28;;;;;;;8.45;4.20;;;;;;;23.66;38.88;102250.78;4958069;28;20031;-78
2023/05/20 06:33:54;;;;;;;8.73;3.92;;;;;;;24.10;38.15;102291.34;4975280;28;20027;-79
2023/05/20 06:36:20;;;;;;;6.88;3.53;;;;;;;24.20;38.51;102291.28;4956690;28;20031;-77
2023/05/20 06:38:46;;;;;;;8.00;4.28;;;;;;;24.39;37.45;102248.09;4975552;28;20042;-78
2023/05/20 06:41:11;;;;;;;7.15;3.92;;;;;;;24.91;37.18;102285.13;4974837;28;20022;-78
2023/05/20 06:43:39;;;;;;;6.50;3.53;;;;;;;25.14;36.39;102283.63;4975022;28;20544;-78
2023/05/20 06:46:05;;;;;;;7.53;4.22;;;;;;;25.14;35.71;102262.47;4974818;28;20023;-79
2023/05/20 06:48:31;;;;;;;8.57;4.00;;;;;;;25.03;35.97;102254.81;4975000;28;20489;-81
2023/05/20 06:50:59;;;;;;;7.85;4.60;;;;;;;24.56;35.88;102278.91;4975089;28;20109;-76
2023/05/20 06:53:24;;;;;;;7.70;4.10;;;;;;;24.46;36.76;102278.16;4957201;28;20082;-75
2023/05/20 06:55:51;;;;;;;5.78;3.40;;;;;;;24.79;36.65;102248.38;4974705;28;20039;-77
2023/05/20 06:58:17;;;;;;;5.97;3.75;;;;;;;24.61;36.30;102244.94;4974752;28;20505;-78
2023/05/20 07:00:42;;;;;;;8.38;3.95;;;;;;;24.71;35.97;102271.28;4957229;28;20042;-79
2023/05/20 07:03:07;;;;;;;6.60;3.50;;;;;;;24.73;36.13;102271.94;4974460;28;20047;-75
2023/05/20 07:05:33;;;;;;;8.70;3.53;;;;;;;25.14;35.83;102270.41;4974584;28;20027;-75
2023/05/20 07:07:58;;;;;;;5.65;3.25;;;;;;;25.06;35.49;102260.59;4974243;28;20074;-77
2023/05/20 07:10:23;;;;;;;8.45;3.45;;;;;;;24.98;35.09;102259.72;4974081;28;20489;-76
2023/05/20 07:12:49;;;;;;;7.43;3.40;;;;;;;25.06;35.50;102243.91;4974325;28;20039;-77
2023/05/20 07:15:14;;;;;;;5.57;2.95;;;;;;;25.07;35.23;102227.94;4974286;28;20027;-76
2023/05/20 07:17:40;;;;;;;6.30;3.30;;;;;;;25.20;34.43;102268.97;4974214;28;20038;-77
2023/05/20 07:20:06;;;;;;;5.68;3.00;;;;;;;25.08;35.20;102263.13;4974415;28;20038;-77
2023/05/20 07:22:31;;;;;;;7.30;3.28;;;;;;;24.39;34.70;102241.00;4974054;28;20033;-77
2023/05/20 07:24:56;;;;;;;5.47;3.10;;;;;;;24.38;35.71;102254.31;4974053;28;20027;-79
2023/05/20 07:27:22;;;;;;;5.97;3.17;;;;;;;24.40;35.59;102225.97;4973891;28;20054;-79
2023/05/20 07:29:47;;;;;;;5.57;3.10;;;;;;;23.47;37.74;102257.78;4974242;28;20037;-77
2023/05/20 07:32:13;;;;;;;6.30;3.25;;;;;;;21.88;40.40;102223.34;4974047;28;20444;-84
2023/05/20 07:34:38;;;;;;;5.22;3.05;;;;;;;20.48;43.82;102242.34;4974082;28;20543;-83
2023/05/20 07:37:04;;;;;;;6.03;3.15;;;;;;;19.54;45.92;102250.75;4974073;28;20023;-81
2023/05/20 07:39:30;;;;;;;6.43;3.63;;;;;;;18.77;47.54;102262.78;4973888;28;20545;-86
2023/05/20 07:41:55;;;;;;;6.28;3.55;;;;;;;18.11;49.82;102235.41;4973885;28;20034;-79
2023/05/20 07:44:22;;;;;;;8.25;3.33;;;;;;;17.67;50.66;102237.59;4974348;28;20052;-81
2023/05/20 07:46:47;;;;;;;5.47;3.33;;;;;;;17.56;53.36;102247.13;4973969;28;20378;-86
2023/05/20 07:49:13;;;;;;;8.52;3.72;;;;;;;17.38;53.91;102250.06;4973912;28;20066;-83
2023/05/20 07:51:38;;;;;;;8.35;3.65;;;;;;;17.35;53.65;102244.25;4956818;28;20045;-87
2023/05/20 07:54:03;;;;;;;5.45;3.47;;;;;;;17.20;54.01;102217.41;4973642;28;20015;-85
2023/05/20 07:56:29;;;;;;;5.65;3.47;;;;;;;17.22;53.15;102243.44;4972461;28;20022;-76
2023/05/20 07:59:02;;;;;;;5.55;3.70;;;;;;;17.08;54.96;102242.56;4973513;28;20035;-75
2023/05/20 08:01:27;;;;;;;8.90;3.83;;;;;;;17.14;55.95;102239.56;4973586;28;20070;-85
2023/05/20 08:03:53;;;;;;;6.88;3.60;;;;;;;17.33;55.48;102244.34;4973974;28;20062;-80
2023/05/20 08:06:23;;;;;;;7.15;3.35;;;;;;;17.45;55.21;102234.81;4955857;28;20501;-83
2023/05/20 08:08:48;;;;;;;6.70;3.33;;;;;;;17.20;54.37;102199.97;4955663;28;20478;-82
2023/05/20 08:11:13;;;;;;;8.52;3.50;;;;;;;17.27;53.08;102210.81;4973564;28;20046;-84
2023/05/20 08:13:39;;;;;;;15.38;3.88;;;;;;;17.34;52.52;102232.97;4973731;28;20027;-79
2023/05/20 08:16:05;;;;;;;7.13;3.35;;;;;;;17.01;53.37;102190.88;4973744;28;20081;-72
2023/05/20 08:18:32;;;;;;;6.00;3.33;;;;;;;17.00;52.66;102184.00;4956536;28;20109;-79
2023/05/20 08:20:58;;;;;;;7.53;3.17;;;;;;;17.09;52.85;102199.03;4973620;28;20027;-77
2023/05/20 08:23:24;;;;;;;8.93;3.40;;;;;;;17.27;52.29;102225.66;4973514;28;20118;-78
2023/05/20 08:25:49;;;;;;;6.25;3.20;;;;;;;17.26;53.44;102230.03;4973528;28;20035;-84
2023/05/20 08:28:15;;;;;;;7.93;3.50;;;;;;;17.24;53.91;102205.00;4973593;28;20039;-77
2023/05/20 08:30:40;;;;;;;5.95;3.33;;;;;;;17.44;54.17;102220.09;4956248;28;20031;-78
2023/05/20 08:33:06;;;;;;;6.85;3.55;;;;;;;17.38;52.02;102212.69;4973396;28;20109;-77
2023/05/20 08:35:31;;;;;;;5.72;3.38;;;;;;;17.49;52.47;102216.22;4973356;28;20113;-81
2023/05/20 08:37:57;;;;;;;6.72;3.75;;;;;;;17.57;53.66;102217.47;4973506;28;20039;-77
2023/05/20 08:40:22;;;;;;;8.00;4.18;;;;;;;17.63;52.98;102212.66;4973329;28;20102;-79
2023/05/20 08:42:53;;;;;;;5.63;3.60;;;;;;;17.67;52.59;102215.88;4973275;28;20090;-76
2023/05/20 08:45:22;;;;;;;5.95;3.40;;;;;;;17.71;53.74;102214.75;4973588;28;20030;-76
2023/05/20 08:47:48;;;;;;;7.50;3.80;;;;;;;17.66;52.47;102193.28;4973355;28;20033;-74
2023/05/20 08:50:15;;;;;;;6.22;3.63;;;;;;;17.90;52.51;102209.88;4972998;28;20030;-76
2023/05/20 08:52:45;;;;;;;6.78;3.40;;;;;;;18.00;52.63;102216.13;4972911;28;20038;-76
2023/05/20 08:55:15;;;;;;;6.50;3.65;;;;;;;17.88;52.59;102193.44;4973196;28;20046;-75
2023/05/20 08:57:44;;;;;;;5.40;3.13;;;;;;;17.84;50.08;102184.19;4973191;28;20470;-74
2023/05/20 09:00:12;;;;;;;7.25;3.38;;;;;;;17.63;51.70;102156.94;4973228;28;20023;-76
2023/05/20 09:02:40;;;;;;;8.02;3.38;;;;;;;18.04;50.75;102204.47;4972936;28;20053;-75
2023/05/20 09:05:08;;;;;;;5.28;2.97;;;;;;;18.01;50.60;102198.66;4973096;28;20030;-77
2023/05/20 09:07:33;;;;;;;7.10;3.40;;;;;;;17.88;51.14;102180.38;4973258;28;20107;-75
2023/05/20 09:09:58;;;;;;;6.72;2.90;;;;;;;18.05;51.96;102182.63;4973624;28;20110;-77
2023/05/20 09:12:24;;;;;;;5.35;3.25;;;;;;;17.73;49.77;102148.38;4976917;28;20438;-77
2023/05/20 09:14:49;;;;;;;6.32;3.03;;;;;;;17.95;49.10;102194.69;4976634;28;20031;-76
2023/05/20 09:17:16;;;;;;;3.80;2.40;;;;;;;18.09;49.48;102193.66;4976529;28;20022;-75
2023/05/20 09:19:42;;;;;;;5.32;2.63;;;;;;;18.19;49.88;102191.22;4976546;28;20054;-77
2023/05/20 09:22:07;;;;;;;7.63;3.10;;;;;;;18.16;49.57;102207.13;4975544;28;20070;-73
2023/05/20 09:24:32;;;;;;;4.40;2.78;;;;;;;17.96;50.55;102151.91;4976329;28;20019;-78
2023/05/20 09:26:58;;;;;;;4.50;2.58;;;;;;;18.21;51.56;102157.97;4957886;28;20443;-75
2023/05/20 09:29:25;;;;;;;5.90;2.58;;;;;;;18.43;48.82;102188.59;4976836;28;20491;-77
2023/05/20 09:31:52;;;;;;;6.63;2.65;;;;;;;18.46;49.02;102168.25;4976367;28;20023;-76
2023/05/20 09:34:19;;;;;;;4.50;2.42;;;;;;;18.79;49.68;102177.16;4976372;28;20027;-76
2023/05/20 09:36:49;;;;;;;8.25;3.00;;;;;;;18.95;49.03;102168.97;4976433;28;20106;-77
2023/05/20 09:39:18;;;;;;;4.78;3.00;;;;;;;19.07;50.61;102158.38;4976043;28;20549;-74
2023/05/20 09:41:55;;;;;;;5.68;2.88;;;;;;;19.30;48.95;102177.53;4976039;28;20041;-76
2023/05/20 09:44:21;;;;;;;10.10;3.20;;;;;;;19.18;48.70;102179.34;4976006;28;20030;-75
2023/05/20 09:46:48;;;;;;;4.63;2.75;;;;;;;19.03;48.65;102159.56;4976021;28;20035;-79
2023/05/20 09:49:14;;;;;;;7.07;3.30;;;;;;;18.95;48.44;102167.19;4976015;28;20031;-83
2023/05/20 09:51:40;;;;;;;4.68;2.92;;;;;;;19.00;48.46;102172.06;4975903;28;20110;-82
2023/05/20 09:54:07;;;;;;;7.97;3.30;;;;;;;18.77;48.14;102169.41;4975847;28;20034;-75
2023/05/20 09:56:33;;;;;;;6.60;3.10;;;;;;;18.42;48.09;102132.81;4975875;28;20030;-75
2023/05/20 09:59:01;;;;;;;5.47;2.80;;;;;;;18.55;50.08;102149.25;4975714;28;20042;-77
2023/05/20 10:01:26;;;;;;;5.82;2.88;;;;;;;18.92;50.34;102180.50;4975635;28;20537;-85
2023/05/20 10:03:52;;;;;;;5.90;3.03;;;;;;;18.87;48.39;102175.59;4975803;28;20023;-77
2023/05/20 10:06:36;;;;;;;7.95;3.53;;;;;;;18.83;48.65;102173.34;4975371;28;20125;-87
2023/05/20 10:09:13;;;;;;;6.03;2.90;;;;;;;18.80;49.73;102171.81;4975779;28;20038;-87
2023/05/20 10:11:44;;;;;;;6.32;3.10;;;;;;;18.64;47.93;102152.97;4975477;28;20538;-76
2023/05/20 10:14:39;;;;;;;6.35;2.40;;;;;;;18.77;49.35;102145.03;4958108;28;20085;-77
2023/05/20 10:17:14;;;;;;;7.65;2.80;;;;;;;18.80;48.32;102121.25;4974295;28;20081;-74
2023/05/20 10:19:39;;;;;;;7.63;3.00;;;;;;;18.91;47.69;102116.84;4975539;28;20031;-78
2023/05/20 10:22:09;;;;;;;6.88;2.92;;;;;;;19.17;48.70;102148.88;4974399;28;20033;-78
2023/05/20 10:24:37;;;;;;;5.15;3.20;;;;;;;19.11;47.28;102120.53;4975245;28;20019;-85
2023/05/20 10:27:10;;;;;;;6.15;2.50;;;;;;;19.31;46.73;102152.16;4975151;28;20058;-85
2023/05/20 10:29:48;;;;;;;5.47;3.20;;;;;;;19.06;45.63;102122.66;4975155;28;20031;-87
2023/05/20 10:32:31;;;;;;;4.90;2.65;;;;;;;19.01;48.94;102108.28;4975631;28;20126;-87
2023/05/20 10:35:07;;;;;;;7.10;2.72;;;;;;;18.87;47.28;102088.41;4975424;28;20027;-86
2023/05/20 10:37:40;;;;;;;6.32;2.80;;;;;;;19.03;47.80;102111.59;4975247;28;20027;-92
2023/05/20 10:40:10;;;;;;;7.18;2.92;;;;;;;19.16;48.19;102126.22;4975166;28;20097;-91
2023/05/20 10:42:36;;;;;;;7.32;3.05;;;;;;;19.01;48.56;102109.13;4975442;28;20102;-89
2023/05/20 10:45:02;;;;;;;6.57;2.85;;;;;;;19.15;49.02;102124.56;4975246;28;20438;-93
2023/05/20 10:47:28;;;;;;;4.97;2.97;;;;;;;19.11;47.97;102130.16;4974892;28;20041;-89
2023/05/20 10:49:53;;;;;;;5.47;2.65;;;;;;;19.00;48.97;102109.25;4975162;28;20129;-86
2023/05/20 10:52:19;;;;;;;6.30;3.00;;;;;;;19.01;48.58;102114.34;4973645;28;20034;-80
2023/05/20 10:55:03;;;;;;;6.07;2.88;;;;;;;18.83;49.02;102071.28;4974463;28;20546;-74
2023/05/20 10:57:29;;;;;;;5.10;2.90;;;;;;;19.11;48.36;102124.94;4957357;28;20026;-75
2023/05/20 10:59:55;;;;;;;7.47;2.85;;;;;;;19.01;48.52;102090.78;4974779;28;20459;-79
2023/05/20 11:02:27;;;;;;;5.13;2.88;;;;;;;19.27;47.78;102135.88;4974624;28;20046;-75
2023/05/20 11:04:57;;;;;;;7.25;2.78;;;;;;;19.29;47.84;102109.56;4974760;28;20153;-77
2023/05/20 11:07:30;;;;;;;4.80;2.80;;;;;;;19.41;47.51;102121.69;4974688;28;20110;-79
2023/05/20 11:09:56;;;;;;;5.93;3.15;;;;;;;19.49;48.25;102116.66;4974348;28;20039;-78
2023/05/20 11:12:23;;;;;;;5.25;2.50;;;;;;;19.32;49.01;102076.09;4974645;28;20430;-75
2023/05/20 11:14:49;;;;;;;5.13;2.90;;;;;;;19.62;47.88;102109.50;4974415;28;20139;-75
2023/05/20 11:17:15;;;;;;;5.82;3.08;;;;;;;19.72;47.32;102106.97;4974648;28;20393;-76
2023/05/20 11:19:40;;;;;;;6.75;2.97;;;;;;;19.81;45.99;102089.66;4956691;28;20030;-76
2023/05/20 11:22:09;;;;;;;5.45;2.90;;;;;;;20.14;45.97;102091.25;4974312;28;20166;-77